Meteo Giornale » Osservazioni meteo Stati Uniti (USA) » Cheyenne
ore: 07:53 - Osservazioni Meteo Cheyenne
Lat. 41° 9' N Lon. 104° 48' W Alt. 1876 metri s.l.m.
15 °C
Sereno
Temp. 24 Ore
14 °C
24 °C
Nord
0 Km/h
Dew point 7 °C
Umidità 58 %
Visibilità 10 Km
Il sole sorge alle ore 06:25
Il sole tramonta alle ore 19:33
| Data e Ora | Cielo e Fenomeni | T °C | DP °C | Um. % | Pres. hPa | Vis. km | Vento km/h | |
|---|---|---|---|---|---|---|---|---|
| Oggi h: 07:53 | Sereno | 15 | 7 | 58 | 1023 | 10 | N 0 | |
| Oggi h: 06:53 | Sereno | 14 | 6 | 58 | 1022 | 10 | N 0 | |
| Oggi h: 05:53 | Sereno | 15 | 6 | 54 | 1022 | 10 | NO 9.3 | |
| Oggi h: 04:53 | Sereno | 17 | 5 | 45 | 1022 | 10 | O 16.7 | |
| Oggi h: 03:53 | Sereno | 16 | 6 | 51 | 1021 | 10 | O 14.8 | |
| Oggi h: 02:53 | Sereno | 17 | 6 | 48 | 1021 | 10 | O 18.5 | |
| Oggi h: 01:53 | Sereno | 15 | 9 | 67 | 1021 | 10 | O 9.3 | |
| Oggi h: 00:53 | Sereno | 16 | 8 | 58 | 1021 | 10 | SO 9.3 | |
| Ieri h: 23:53 | Sereno | 18 | 8 | 51 | 1022 | 10 | O 9.3 | |
| Ieri h: 22:53 | Nuvoloso | 18 | 7 | 48 | 1021 | 10 | O/SO 13 | |
| Ieri h: 21:53 | Sereno | 17 | 8 | 55 | 1022 | 10 | O 9.3 | |
| Ieri h: 20:53 | Sereno | 18 | 8 | 51 | 1021 | 10 | S/SO 13 | |
| Ieri h: 19:53 | Sereno | 20 | 7 | 42 | 1020 | 10 | N 0 | |
| Ieri h: 18:53 | Sereno | 19 | 7 | 45 | 1020 | 10 | SE 9.3 | |
| Ieri h: 17:53 | Sereno | 19 | 7 | 45 | 1020 | 10 | SO 7.4 | |
| Ieri h: 16:53 | Sereno | 19 | 7 | 45 | 1021 | 10 | O 18.5 | |
| Ieri h: 15:53 | Sereno | 21 | 8 | 43 | 1021 | 10 | O 27.8 | |
| Ieri h: 14:53 | Poco Nuvoloso | 22 | 8 | 40 | 1021 | 10 | O 37 | |
| Ieri h: 13:53 | Molto Nuvoloso | 22 | 8 | 40 | 1020 | 10 | O 27.8 | |
| Ieri h: 12:53 | Sereno | 23 | 7 | 35 | 1020 | 10 | O 31.5 | |
| Ieri h: 11:53 | Sereno | 24 | 8 | 35 | 1019 | 10 | O/SO 29.6 | |
| Ieri h: 10:53 | Sereno | 21 | 7 | 40 | 1020 | 10 | O/SO 27.8 | |
| Ieri h: 09:53 | Nuvoloso | 19 | 7 | 45 | 1021 | 10 | O 29.6 | |
| Ieri h: 08:53 | Poco Nuvoloso | 19 | 8 | 48 | 1020 | 10 | O 35.2 | |



